createdAt,value
2022-08-18T00:01:11.579Z,88.40431952397937
2022-08-18T00:09:42.435Z,88.32632262324444
2022-08-18T00:17:36.760Z,89.09964571665385
2022-08-18T00:25:30.069Z,89.33448916473586
2022-08-18T00:33:13.460Z,91.51614661207185
2022-08-18T00:41:15.161Z,92.95028230512193
2022-08-18T00:49:10.139Z,93.67276081784087
2022-08-18T00:56:45.474Z,93.02060911864572
2022-08-18T01:04:14.620Z,93.75609448601179
2022-08-18T01:12:12.424Z,93.79425341730484
2022-08-18T01:20:53.829Z,93.07602790564334
2022-08-18T01:28:30.822Z,93.35318331799644
2022-08-18T01:36:13.410Z,94.4008562165951
2022-08-18T01:45:23.185Z,95.36463629146886
2022-08-18T01:53:09.355Z,97.02560840624587
2022-08-18T02:00:40.507Z,97.65079894373139
2022-08-18T02:09:26.081Z,97.43883986657296
2022-08-18T02:17:11.568Z,97.63481823438201
2022-08-18T02:25:00.223Z,98.6243249478207
2022-08-18T02:32:37.661Z,98.020052821347
2022-08-18T02:40:32.623Z,99.05830693441322
2022-08-18T02:48:07.960Z,98.37683515296946
2022-08-18T02:55:40.283Z,97.57800049870492
2022-08-18T03:03:42.897Z,98.40882421049614
2022-08-18T03:11:21.711Z,98.20178150822599
2022-08-18T03:19:01.524Z,98.17108691995713
2022-08-18T03:27:25.596Z,98.82466691663615
2022-08-18T03:34:57.711Z,98.68250473919603
2022-08-18T03:42:27.951Z,97.77360435864796
2022-08-18T03:50:35.582Z,97.59426387480431
2022-08-18T03:58:14.718Z,97.65662070180814
2022-08-18T04:06:01.401Z,98.31642784777068
2022-08-18T04:13:42.766Z,98.05839112555951
2022-08-18T04:21:34.227Z,97.08820203600706
2022-08-18T04:29:27.044Z,96.78412421639078
2022-08-18T04:36:57.790Z,97.4373896539502
2022-08-18T04:44:32.721Z,97.64727670324005
2022-08-18T04:53:01.774Z,96.64018534779495
2022-08-18T05:00:35.736Z,96.19625103300258
2022-08-18T05:08:15.804Z,96.0977379496021
2022-08-18T05:16:13.311Z,96.57880660514601
2022-08-18T05:24:11.037Z,95.84252553595024
2022-08-18T05:32:03.443Z,95.45862046187356
2022-08-18T05:39:57.764Z,95.21330148797597
2022-08-18T05:47:44.410Z,95.28332236787516
2022-08-18T05:55:18.184Z,94.79137909725495
2022-08-18T06:03:02.675Z,95.41321469174397
2022-08-18T06:10:46.721Z,94.16531932140178
2022-08-18T06:18:29.885Z,93.6209486878811
2022-08-18T06:26:16.174Z,93.71078450507221
2022-08-18T06:33:58.334Z,93.7465856022118
2022-08-18T06:42:04.342Z,93.34584658800401
2022-08-18T06:49:49.020Z,92.97353099320789
2022-08-18T06:57:53.597Z,91.70841741532986
2022-08-18T07:05:26.020Z,90.9071329450389
2022-08-18T07:13:00.948Z,90.86098122169669
2022-08-18T07:21:12.046Z,91.2176059995623
2022-08-18T07:29:12.109Z,91.56147092363545
2022-08-18T07:37:00.091Z,91.4729603343066
2022-08-18T07:45:12.511Z,90.02622945433018
2022-08-18T07:54:45.253Z,89.27567233431921
2022-08-18T08:02:38.594Z,88.26341527506146
2022-08-18T08:10:18.423Z,88.68079148153403
2022-08-18T08:18:20.213Z,89.090571290035
2022-08-18T08:26:22.599Z,89.40382125975904
2022-08-18T08:34:28.160Z,89.44542019470863
2022-08-18T08:43:07.191Z,88.5350730022798
2022-08-18T08:50:45.865Z,89.16793888490395
2022-08-18T08:58:38.347Z,88.71067900396439
2022-08-18T09:07:15.606Z,87.66675144605453
2022-08-18T09:14:58.606Z,88.08695549107497
2022-08-18T09:22:43.338Z,86.17236695719527
2022-08-18T09:30:36.571Z,87.76488169128834
2022-08-18T09:38:29.734Z,86.39433192269784
